sensor_id;sensor_type;location;lat;lon;timestamp;temperature;humidity
32348;DHT22;18821;44.800;10.326;2022-09-09T00:02:22;21.40;99.90
32348;DHT22;18821;44.800;10.326;2022-09-09T00:10:23;21.40;99.90
32348;DHT22;18821;44.800;10.326;2022-09-09T00:15:39;21.30;99.90
32348;DHT22;18821;44.800;10.326;2022-09-09T00:18:18;21.30;99.90
32348;DHT22;18821;44.800;10.326;2022-09-09T00:21:07;21.20;99.90
32348;DHT22;18821;44.800;10.326;2022-09-09T00:23:37;21.10;99.90
32348;DHT22;18821;44.800;10.326;2022-09-09T00:31:36;21.10;99.90
32348;DHT22;18821;44.800;10.326;2022-09-09T00:34:15;21.10;99.90
32348;DHT22;18821;44.800;10.326;2022-09-09T00:36:42;21.20;99.90
32348;DHT22;18821;44.800;10.326;2022-09-09T00:39:42;21.10;99.90
32348;DHT22;18821;44.800;10.326;2022-09-09T00:42:17;21.10;99.90
32348;DHT22;18821;44.800;10.326;2022-09-09T00:45:41;21.10;99.90
32348;DHT22;18821;44.800;10.326;2022-09-09T00:47:49;21.10;99.90
32348;DHT22;18821;44.800;10.326;2022-09-09T00:50:27;21.00;99.90
32348;DHT22;18821;44.800;10.326;2022-09-09T00:58:35;21.00;99.90
32348;DHT22;18821;44.800;10.326;2022-09-09T01:01:03;20.90;99.90
32348;DHT22;18821;44.800;10.326;2022-09-09T01:03:52;20.80;99.90
32348;DHT22;18821;44.800;10.326;2022-09-09T01:17:32;20.80;99.90
32348;DHT22;18821;44.800;10.326;2022-09-09T01:20:14;20.80;99.90
32348;DHT22;18821;44.800;10.326;2022-09-09T01:28:27;20.70;99.90
32348;DHT22;18821;44.800;10.326;2022-09-09T01:31:00;20.70;99.90
32348;DHT22;18821;44.800;10.326;2022-09-09T01:33:34;20.70;99.90
32348;DHT22;18821;44.800;10.326;2022-09-09T01:38:35;20.60;99.90
32348;DHT22;18821;44.800;10.326;2022-09-09T01:41:02;20.60;99.90
32348;DHT22;18821;44.800;10.326;2022-09-09T01:43:38;20.60;99.90
32348;DHT22;18821;44.800;10.326;2022-09-09T01:46:05;20.60;99.90
32348;DHT22;18821;44.800;10.326;2022-09-09T01:48:33;20.50;99.90
32348;DHT22;18821;44.800;10.326;2022-09-09T01:51:02;20.50;99.90
32348;DHT22;18821;44.800;10.326;2022-09-09T01:53:29;20.40;99.90
32348;DHT22;18821;44.800;10.326;2022-09-09T01:58:34;20.50;99.90
32348;DHT22;18821;44.800;10.326;2022-09-09T02:01:43;20.50;99.90
32348;DHT22;18821;44.800;10.326;2022-09-09T02:04:37;20.50;99.90
32348;DHT22;18821;44.800;10.326;2022-09-09T02:07:19;20.50;99.90
32348;DHT22;18821;44.800;10.326;2022-09-09T02:09:50;20.40;99.90
32348;DHT22;18821;44.800;10.326;2022-09-09T02:12:19;20.40;99.90
32348;DHT22;18821;44.800;10.326;2022-09-09T02:14:55;20.40;99.90
32348;DHT22;18821;44.800;10.326;2022-09-09T02:17:30;20.40;99.90
32348;DHT22;18821;44.800;10.326;2022-09-09T02:20:10;20.40;99.90
32348;DHT22;18821;44.800;10.326;2022-09-09T02:22:49;20.40;99.90
32348;DHT22;18821;44.800;10.326;2022-09-09T02:25:20;20.40;99.90
32348;DHT22;18821;44.800;10.326;2022-09-09T02:27:50;20.30;99.90
32348;DHT22;18821;44.800;10.326;2022-09-09T02:30:18;20.20;99.90
32348;DHT22;18821;44.800;10.326;2022-09-09T02:32:52;20.20;99.90
32348;DHT22;18821;44.800;10.326;2022-09-09T02:35:25;20.10;99.90
32348;DHT22;18821;44.800;10.326;2022-09-09T02:37:55;20.00;99.90
32348;DHT22;18821;44.800;10.326;2022-09-09T02:40:23;19.90;99.90
32348;DHT22;18821;44.800;10.326;2022-09-09T02:42:56;19.80;99.90
32348;DHT22;18821;44.800;10.326;2022-09-09T02:45:31;19.60;99.90
32348;DHT22;18821;44.800;10.326;2022-09-09T02:48:14;19.50;99.90
32348;DHT22;18821;44.800;10.326;2022-09-09T02:50:54;19.40;99.90
32348;DHT22;18821;44.800;10.326;2022-09-09T02:56:32;19.30;99.90
32348;DHT22;18821;44.800;10.326;2022-09-09T02:59:03;19.30;99.90
32348;DHT22;18821;44.800;10.326;2022-09-09T03:01:30;19.30;99.90
32348;DHT22;18821;44.800;10.326;2022-09-09T03:03:58;19.30;99.90
32348;DHT22;18821;44.800;10.326;2022-09-09T03:06:25;19.40;99.90
32348;DHT22;18821;44.800;10.326;2022-09-09T03:08:59;19.40;99.90
32348;DHT22;18821;44.800;10.326;2022-09-09T03:11:28;19.40;99.90
32348;DHT22;18821;44.800;10.326;2022-09-09T03:13:54;19.40;99.90
32348;DHT22;18821;44.800;10.326;2022-09-09T03:16:23;19.50;99.90
32348;DHT22;18821;44.800;10.326;2022-09-09T03:18:51;19.40;99.90
32348;DHT22;18821;44.800;10.326;2022-09-09T03:21:19;19.30;99.90
32348;DHT22;18821;44.800;10.326;2022-09-09T03:23:45;19.30;99.90
32348;DHT22;18821;44.800;10.326;2022-09-09T03:26:11;19.20;99.90
32348;DHT22;18821;44.800;10.326;2022-09-09T03:28:42;19.10;99.90
32348;DHT22;18821;44.800;10.326;2022-09-09T03:31:10;19.00;99.90
32348;DHT22;18821;44.800;10.326;2022-09-09T03:33:39;19.00;99.90
32348;DHT22;18821;44.800;10.326;2022-09-09T03:36:09;19.00;99.90
32348;DHT22;18821;44.800;10.326;2022-09-09T03:38:36;19.10;99.90
32348;DHT22;18821;44.800;10.326;2022-09-09T03:41:02;19.10;99.90
32348;DHT22;18821;44.800;10.326;2022-09-09T03:43:29;19.00;99.90
32348;DHT22;18821;44.800;10.326;2022-09-09T03:45:56;19.10;99.90
32348;DHT22;18821;44.800;10.326;2022-09-09T03:48:27;19.10;99.90
32348;DHT22;18821;44.800;10.326;2022-09-09T03:50:55;19.00;99.90
32348;DHT22;18821;44.800;10.326;2022-09-09T03:53:24;19.10;99.90
32348;DHT22;18821;44.800;10.326;2022-09-09T03:55:52;19.10;99.90
32348;DHT22;18821;44.800;10.326;2022-09-09T03:58:22;19.10;99.90
32348;DHT22;18821;44.800;10.326;2022-09-09T04:00:57;19.10;99.90
32348;DHT22;18821;44.800;10.326;2022-09-09T04:03:26;19.20;99.90
32348;DHT22;18821;44.800;10.326;2022-09-09T04:05:52;19.20;99.90
32348;DHT22;18821;44.800;10.326;2022-09-09T04:08:20;19.20;99.90
32348;DHT22;18821;44.800;10.326;2022-09-09T04:10:48;19.20;99.90
32348;DHT22;18821;44.800;10.326;2022-09-09T04:13:16;19.20;99.90
32348;DHT22;18821;44.800;10.326;2022-09-09T04:15:55;19.20;99.90
32348;DHT22;18821;44.800;10.326;2022-09-09T04:18:23;19.20;99.90
32348;DHT22;18821;44.800;10.326;2022-09-09T04:20:50;19.30;99.90
32348;DHT22;18821;44.800;10.326;2022-09-09T04:23:19;19.30;99.90
32348;DHT22;18821;44.800;10.326;2022-09-09T04:25:50;19.30;99.90
32348;DHT22;18821;44.800;10.326;2022-09-09T04:28:18;19.30;99.90
32348;DHT22;18821;44.800;10.326;2022-09-09T04:30:45;19.30;99.90
32348;DHT22;18821;44.800;10.326;2022-09-09T04:33:13;19.20;99.90
32348;DHT22;18821;44.800;10.326;2022-09-09T04:35:39;19.10;99.90
32348;DHT22;18821;44.800;10.326;2022-09-09T04:38:09;19.20;99.90
32348;DHT22;18821;44.800;10.326;2022-09-09T04:40:35;19.20;99.90
32348;DHT22;18821;44.800;10.326;2022-09-09T04:43:03;19.20;99.90
32348;DHT22;18821;44.800;10.326;2022-09-09T04:45:32;19.10;99.90
32348;DHT22;18821;44.800;10.326;2022-09-09T04:47:59;19.10;99.90
32348;DHT22;18821;44.800;10.326;2022-09-09T04:50:25;19.20;99.90
32348;DHT22;18821;44.800;10.326;2022-09-09T04:53:00;19.20;99.90
32348;DHT22;18821;44.800;10.326;2022-09-09T04:55:28;19.20;99.90
32348;DHT22;18821;44.800;10.326;2022-09-09T04:57:54;19.20;99.90
32348;DHT22;18821;44.800;10.326;2022-09-09T05:00:20;19.20;99.90
32348;DHT22;18821;44.800;10.326;2022-09-09T05:02:48;18.90;99.90
32348;DHT22;18821;44.800;10.326;2022-09-09T05:05:14;18.80;99.90
32348;DHT22;18821;44.800;10.326;2022-09-09T05:07:41;18.80;99.90
32348;DHT22;18821;44.800;10.326;2022-09-09T05:10:08;18.80;99.90
32348;DHT22;18821;44.800;10.326;2022-09-09T05:12:34;18.80;99.90
32348;DHT22;18821;44.800;10.326;2022-09-09T05:15:00;18.90;99.90
32348;DHT22;18821;44.800;10.326;2022-09-09T05:17:27;18.90;99.90
32348;DHT22;18821;44.800;10.326;2022-09-09T05:19:53;19.00;99.90
32348;DHT22;18821;44.800;10.326;2022-09-09T05:22:20;19.00;99.90
32348;DHT22;18821;44.800;10.326;2022-09-09T05:24:49;19.00;99.90
32348;DHT22;18821;44.800;10.326;2022-09-09T05:27:19;18.90;99.90
32348;DHT22;18821;44.800;10.326;2022-09-09T05:29:47;18.90;99.90
32348;DHT22;18821;44.800;10.326;2022-09-09T05:32:13;19.00;99.90
32348;DHT22;18821;44.800;10.326;2022-09-09T05:34:42;18.90;99.90
32348;DHT22;18821;44.800;10.326;2022-09-09T05:37:08;19.00;99.90
32348;DHT22;18821;44.800;10.326;2022-09-09T05:39:35;19.10;99.90
32348;DHT22;18821;44.800;10.326;2022-09-09T05:42:04;19.20;99.90
32348;DHT22;18821;44.800;10.326;2022-09-09T05:44:32;19.30;99.90
32348;DHT22;18821;44.800;10.326;2022-09-09T05:46:59;19.40;99.90
32348;DHT22;18821;44.800;10.326;2022-09-09T05:49:27;19.50;99.90
32348;DHT22;18821;44.800;10.326;2022-09-09T05:51:53;19.50;99.90
32348;DHT22;18821;44.800;10.326;2022-09-09T05:54:20;19.50;99.90
32348;DHT22;18821;44.800;10.326;2022-09-09T05:56:49;19.60;99.90
32348;DHT22;18821;44.800;10.326;2022-09-09T05:59:17;19.80;99.90
32348;DHT22;18821;44.800;10.326;2022-09-09T06:01:44;20.30;99.90
32348;DHT22;18821;44.800;10.326;2022-09-09T06:04:18;21.10;99.90
32348;DHT22;18821;44.800;10.326;2022-09-09T06:06:48;21.50;99.90
32348;DHT22;18821;44.800;10.326;2022-09-09T06:09:17;21.90;99.90
32348;DHT22;18821;44.800;10.326;2022-09-09T06:11:43;22.10;99.90
32348;DHT22;18821;44.800;10.326;2022-09-09T06:14:11;22.30;99.90
32348;DHT22;18821;44.800;10.326;2022-09-09T06:16:38;22.40;99.90
32348;DHT22;18821;44.800;10.326;2022-09-09T06:19:12;22.50;99.90
32348;DHT22;18821;44.800;10.326;2022-09-09T06:21:39;22.50;99.90
32348;DHT22;18821;44.800;10.326;2022-09-09T06:24:08;22.20;99.90
32348;DHT22;18821;44.800;10.326;2022-09-09T06:26:37;22.10;99.90
32348;DHT22;18821;44.800;10.326;2022-09-09T06:29:04;22.00;99.90
32348;DHT22;18821;44.800;10.326;2022-09-09T06:31:33;22.40;99.90
32348;DHT22;18821;44.800;10.326;2022-09-09T06:34:34;22.50;99.90
32348;DHT22;18821;44.800;10.326;2022-09-09T06:37:03;22.10;99.90
32348;DHT22;18821;44.800;10.326;2022-09-09T06:39:36;22.00;99.90
32348;DHT22;18821;44.800;10.326;2022-09-09T06:42:03;21.20;99.90
32348;DHT22;18821;44.800;10.326;2022-09-09T06:44:57;21.20;99.90
32348;DHT22;18821;44.800;10.326;2022-09-09T06:47:54;21.00;99.90
32348;DHT22;18821;44.800;10.326;2022-09-09T06:50:21;20.70;99.90
32348;DHT22;18821;44.800;10.326;2022-09-09T06:52:49;20.80;99.90
32348;DHT22;18821;44.800;10.326;2022-09-09T06:55:15;21.10;99.90
32348;DHT22;18821;44.800;10.326;2022-09-09T06:57:44;21.10;99.90
32348;DHT22;18821;44.800;10.326;2022-09-09T07:00:15;21.40;99.90
32348;DHT22;18821;44.800;10.326;2022-09-09T07:02:42;21.60;99.90
32348;DHT22;18821;44.800;10.326;2022-09-09T07:05:11;21.90;99.90
32348;DHT22;18821;44.800;10.326;2022-09-09T07:07:38;22.10;99.90
32348;DHT22;18821;44.800;10.326;2022-09-09T07:10:05;22.30;99.90
32348;DHT22;18821;44.800;10.326;2022-09-09T07:12:33;22.30;99.90
32348;DHT22;18821;44.800;10.326;2022-09-09T07:15:00;22.40;99.90
32348;DHT22;18821;44.800;10.326;2022-09-09T07:17:27;22.30;99.90
32348;DHT22;18821;44.800;10.326;2022-09-09T07:19:55;22.00;99.90
32348;DHT22;18821;44.800;10.326;2022-09-09T07:22:22;21.50;99.90
32348;DHT22;18821;44.800;10.326;2022-09-09T07:24:49;21.40;99.90
32348;DHT22;18821;44.800;10.326;2022-09-09T07:27:15;21.60;99.90
32348;DHT22;18821;44.800;10.326;2022-09-09T07:29:41;21.90;99.90
32348;DHT22;18821;44.800;10.326;2022-09-09T07:32:08;22.10;99.90
32348;DHT22;18821;44.800;10.326;2022-09-09T07:34:36;22.30;99.90
32348;DHT22;18821;44.800;10.326;2022-09-09T07:37:03;22.40;99.90
32348;DHT22;18821;44.800;10.326;2022-09-09T07:39:31;22.40;99.90
32348;DHT22;18821;44.800;10.326;2022-09-09T07:41:57;22.30;99.90
32348;DHT22;18821;44.800;10.326;2022-09-09T07:44:26;22.30;99.90
32348;DHT22;18821;44.800;10.326;2022-09-09T07:47:07;22.50;99.90
32348;DHT22;18821;44.800;10.326;2022-09-09T07:49:37;22.20;99.90
32348;DHT22;18821;44.800;10.326;2022-09-09T07:52:05;22.30;99.90
32348;DHT22;18821;44.800;10.326;2022-09-09T07:54:32;22.20;99.90
32348;DHT22;18821;44.800;10.326;2022-09-09T07:56:59;21.80;99.90
32348;DHT22;18821;44.800;10.326;2022-09-09T07:59:27;21.80;99.90
32348;DHT22;18821;44.800;10.326;2022-09-09T08:01:56;22.00;99.90
32348;DHT22;18821;44.800;10.326;2022-09-09T08:04:28;22.10;99.90
32348;DHT22;18821;44.800;10.326;2022-09-09T08:06:59;22.30;99.90
32348;DHT22;18821;44.800;10.326;2022-09-09T08:09:28;22.30;99.90
32348;DHT22;18821;44.800;10.326;2022-09-09T08:12:01;22.50;99.90
32348;DHT22;18821;44.800;10.326;2022-09-09T08:14:32;22.60;99.90
32348;DHT22;18821;44.800;10.326;2022-09-09T08:16:58;22.70;99.90
32348;DHT22;18821;44.800;10.326;2022-09-09T08:19:27;22.80;99.90
32348;DHT22;18821;44.800;10.326;2022-09-09T08:21:56;22.90;99.90
32348;DHT22;18821;44.800;10.326;2022-09-09T08:24:22;23.00;99.90
32348;DHT22;18821;44.800;10.326;2022-09-09T08:26:49;23.00;99.90
32348;DHT22;18821;44.800;10.326;2022-09-09T08:29:18;23.20;99.90
32348;DHT22;18821;44.800;10.326;2022-09-09T08:31:55;23.20;99.90
32348;DHT22;18821;44.800;10.326;2022-09-09T08:34:24;23.20;99.90
32348;DHT22;18821;44.800;10.326;2022-09-09T08:36:52;23.20;99.90
32348;DHT22;18821;44.800;10.326;2022-09-09T08:39:23;23.20;99.90
32348;DHT22;18821;44.800;10.326;2022-09-09T08:52:36;22.90;99.90
32348;DHT22;18821;44.800;10.326;2022-09-09T08:57:52;22.90;99.90
32348;DHT22;18821;44.800;10.326;2022-09-09T09:00:19;23.30;99.90
32348;DHT22;18821;44.800;10.326;2022-09-09T09:03:06;23.20;99.90
32348;DHT22;18821;44.800;10.326;2022-09-09T09:05:49;23.60;99.90
32348;DHT22;18821;44.800;10.326;2022-09-09T09:08:32;23.80;99.90
32348;DHT22;18821;44.800;10.326;2022-09-09T09:11:00;24.10;99.90
32348;DHT22;18821;44.800;10.326;2022-09-09T09:13:40;24.30;99.90
32348;DHT22;18821;44.800;10.326;2022-09-09T09:16:35;24.30;99.90
32348;DHT22;18821;44.800;10.326;2022-09-09T09:19:05;24.40;99.90
32348;DHT22;18821;44.800;10.326;2022-09-09T09:21:43;24.50;99.90
32348;DHT22;18821;44.800;10.326;2022-09-09T09:24:22;24.60;99.90
32348;DHT22;18821;44.800;10.326;2022-09-09T09:26:50;24.60;99.90
32348;DHT22;18821;44.800;10.326;2022-09-09T09:29:19;24.70;99.90
32348;DHT22;18821;44.800;10.326;2022-09-09T09:31:53;24.90;99.90
32348;DHT22;18821;44.800;10.326;2022-09-09T09:34:22;25.00;99.90
32348;DHT22;18821;44.800;10.326;2022-09-09T09:36:57;24.80;99.90
32348;DHT22;18821;44.800;10.326;2022-09-09T09:39:28;24.90;99.90
32348;DHT22;18821;44.800;10.326;2022-09-09T09:41:58;25.10;99.90
32348;DHT22;18821;44.800;10.326;2022-09-09T09:44:33;25.10;99.90
32348;DHT22;18821;44.800;10.326;2022-09-09T09:47:16;25.40;99.90
32348;DHT22;18821;44.800;10.326;2022-09-09T09:50:00;25.10;99.90
32348;DHT22;18821;44.800;10.326;2022-09-09T09:52:33;25.20;99.90
32348;DHT22;18821;44.800;10.326;2022-09-09T09:55:03;25.20;99.90
32348;DHT22;18821;44.800;10.326;2022-09-09T09:57:33;25.00;99.90
32348;DHT22;18821;44.800;10.326;2022-09-09T10:00:06;25.10;99.90
32348;DHT22;18821;44.800;10.326;2022-09-09T10:02:42;25.00;99.90
32348;DHT22;18821;44.800;10.326;2022-09-09T10:05:20;25.20;99.90
32348;DHT22;18821;44.800;10.326;2022-09-09T10:08:12;25.30;99.90
32348;DHT22;18821;44.800;10.326;2022-09-09T10:19:09;25.10;99.90
32348;DHT22;18821;44.800;10.326;2022-09-09T10:24:30;25.20;99.90
32348;DHT22;18821;44.800;10.326;2022-09-09T10:35:24;25.30;99.90
32348;DHT22;18821;44.800;10.326;2022-09-09T10:40:38;24.70;99.90
32348;DHT22;18821;44.800;10.326;2022-09-09T10:48:31;25.00;99.90
32348;DHT22;18821;44.800;10.326;2022-09-09T10:51:15;24.80;99.90
32348;DHT22;18821;44.800;10.326;2022-09-09T10:56:13;25.20;99.90
32348;DHT22;18821;44.800;10.326;2022-09-09T10:59:11;25.30;99.90
32348;DHT22;18821;44.800;10.326;2022-09-09T11:02:22;25.30;99.90
32348;DHT22;18821;44.800;10.326;2022-09-09T11:04:50;25.30;99.90
32348;DHT22;18821;44.800;10.326;2022-09-09T11:07:26;25.50;99.90
32348;DHT22;18821;44.800;10.326;2022-09-09T11:09:59;25.60;99.90
32348;DHT22;18821;44.800;10.326;2022-09-09T11:12:30;25.80;99.90
32348;DHT22;18821;44.800;10.326;2022-09-09T11:15:04;26.20;99.90
32348;DHT22;18821;44.800;10.326;2022-09-09T11:17:45;25.80;99.90
32348;DHT22;18821;44.800;10.326;2022-09-09T11:20:13;25.40;99.90
32348;DHT22;18821;44.800;10.326;2022-09-09T11:30:32;25.60;99.90
32348;DHT22;18821;44.800;10.326;2022-09-09T11:38:52;26.30;99.90
32348;DHT22;18821;44.800;10.326;2022-09-09T11:41:20;26.30;99.90
32348;DHT22;18821;44.800;10.326;2022-09-09T11:43:47;26.20;99.90
32348;DHT22;18821;44.800;10.326;2022-09-09T11:46:15;26.40;99.90
32348;DHT22;18821;44.800;10.326;2022-09-09T11:48:45;26.70;99.90
32348;DHT22;18821;44.800;10.326;2022-09-09T11:54:00;26.50;99.90
32348;DHT22;18821;44.800;10.326;2022-09-09T11:56:32;26.30;99.90
32348;DHT22;18821;44.800;10.326;2022-09-09T12:04:26;26.20;99.90
32348;DHT22;18821;44.800;10.326;2022-09-09T12:09:58;26.50;99.90
32348;DHT22;18821;44.800;10.326;2022-09-09T12:12:43;26.60;99.90
32348;DHT22;18821;44.800;10.326;2022-09-09T12:17:45;26.60;99.90
32348;DHT22;18821;44.800;10.326;2022-09-09T12:20:16;26.10;99.90
32348;DHT22;18821;44.800;10.326;2022-09-09T12:28:32;26.50;99.90
32348;DHT22;18821;44.800;10.326;2022-09-09T12:33:40;26.70;99.90
32348;DHT22;18821;44.800;10.326;2022-09-09T12:36:16;26.40;99.90
32348;DHT22;18821;44.800;10.326;2022-09-09T12:38:45;26.60;99.90
32348;DHT22;18821;44.800;10.326;2022-09-09T12:41:24;26.90;99.90
32348;DHT22;18821;44.800;10.326;2022-09-09T12:44:02;27.10;99.90
32348;DHT22;18821;44.800;10.326;2022-09-09T12:48:59;26.90;99.90
32348;DHT22;18821;44.800;10.326;2022-09-09T12:51:31;26.90;99.90
32348;DHT22;18821;44.800;10.326;2022-09-09T12:53:59;26.80;99.90
32348;DHT22;18821;44.800;10.326;2022-09-09T12:56:28;26.90;99.90
32348;DHT22;18821;44.800;10.326;2022-09-09T12:58:57;27.00;99.90
32348;DHT22;18821;44.800;10.326;2022-09-09T13:01:30;27.00;99.90
32348;DHT22;18821;44.800;10.326;2022-09-09T13:03:56;27.00;99.90
32348;DHT22;18821;44.800;10.326;2022-09-09T13:06:27;27.00;99.90
32348;DHT22;18821;44.800;10.326;2022-09-09T13:08:57;27.00;99.90
32348;DHT22;18821;44.800;10.326;2022-09-09T13:11:39;26.70;99.90
32348;DHT22;18821;44.800;10.326;2022-09-09T13:14:28;26.70;99.90
32348;DHT22;18821;44.800;10.326;2022-09-09T13:17:00;26.80;99.90
32348;DHT22;18821;44.800;10.326;2022-09-09T13:19:37;26.90;99.90
32348;DHT22;18821;44.800;10.326;2022-09-09T13:22:14;26.90;99.90
32348;DHT22;18821;44.800;10.326;2022-09-09T13:24:41;26.90;99.90
32348;DHT22;18821;44.800;10.326;2022-09-09T13:27:40;26.90;99.90
32348;DHT22;18821;44.800;10.326;2022-09-09T13:30:23;26.90;99.90
32348;DHT22;18821;44.800;10.326;2022-09-09T13:38:14;27.30;99.90
32348;DHT22;18821;44.800;10.326;2022-09-09T13:40:58;27.60;99.90
32348;DHT22;18821;44.800;10.326;2022-09-09T13:43:27;27.50;99.90
32348;DHT22;18821;44.800;10.326;2022-09-09T13:45:56;27.60;99.90
32348;DHT22;18821;44.800;10.326;2022-09-09T13:48:22;27.80;99.90
32348;DHT22;18821;44.800;10.326;2022-09-09T13:51:00;27.80;99.90
32348;DHT22;18821;44.800;10.326;2022-09-09T13:53:27;27.70;99.90
32348;DHT22;18821;44.800;10.326;2022-09-09T13:55:54;27.60;99.90
32348;DHT22;18821;44.800;10.326;2022-09-09T13:58:20;27.90;99.90
32348;DHT22;18821;44.800;10.326;2022-09-09T14:00:47;28.20;99.90
32348;DHT22;18821;44.800;10.326;2022-09-09T14:03:13;28.40;99.90
32348;DHT22;18821;44.800;10.326;2022-09-09T14:05:39;28.50;99.90
32348;DHT22;18821;44.800;10.326;2022-09-09T14:08:06;28.60;99.90
32348;DHT22;18821;44.800;10.326;2022-09-09T14:10:33;28.70;99.90
32348;DHT22;18821;44.800;10.326;2022-09-09T14:13:03;28.80;99.90
32348;DHT22;18821;44.800;10.326;2022-09-09T14:15:29;28.70;99.90
32348;DHT22;18821;44.800;10.326;2022-09-09T14:17:55;28.10;99.90
32348;DHT22;18821;44.800;10.326;2022-09-09T14:20:21;28.10;99.90
32348;DHT22;18821;44.800;10.326;2022-09-09T14:22:47;28.10;99.90
32348;DHT22;18821;44.800;10.326;2022-09-09T14:25:13;28.20;99.90
32348;DHT22;18821;44.800;10.326;2022-09-09T14:27:39;28.20;99.90
32348;DHT22;18821;44.800;10.326;2022-09-09T14:30:07;27.90;99.90
32348;DHT22;18821;44.800;10.326;2022-09-09T14:32:33;27.90;99.90
32348;DHT22;18821;44.800;10.326;2022-09-09T14:35:01;28.00;99.90
32348;DHT22;18821;44.800;10.326;2022-09-09T14:37:27;28.10;99.90
32348;DHT22;18821;44.800;10.326;2022-09-09T14:39:53;28.10;99.90
32348;DHT22;18821;44.800;10.326;2022-09-09T14:42:20;28.30;99.90
32348;DHT22;18821;44.800;10.326;2022-09-09T14:44:47;28.50;99.90
32348;DHT22;18821;44.800;10.326;2022-09-09T14:47:13;28.20;99.90
32348;DHT22;18821;44.800;10.326;2022-09-09T14:49:39;27.90;99.90
32348;DHT22;18821;44.800;10.326;2022-09-09T14:52:05;28.10;99.90
32348;DHT22;18821;44.800;10.326;2022-09-09T14:54:32;28.20;99.90
32348;DHT22;18821;44.800;10.326;2022-09-09T14:56:58;28.40;99.90
32348;DHT22;18821;44.800;10.326;2022-09-09T14:59:24;28.00;99.90
32348;DHT22;18821;44.800;10.326;2022-09-09T15:01:50;27.70;99.90
32348;DHT22;18821;44.800;10.326;2022-09-09T15:04:16;27.80;99.90
32348;DHT22;18821;44.800;10.326;2022-09-09T15:06:44;28.10;99.90
32348;DHT22;18821;44.800;10.326;2022-09-09T15:09:14;28.20;99.90
32348;DHT22;18821;44.800;10.326;2022-09-09T15:11:40;28.40;99.90
32348;DHT22;18821;44.800;10.326;2022-09-09T15:14:08;28.30;99.90
32348;DHT22;18821;44.800;10.326;2022-09-09T15:16:34;28.20;99.90
32348;DHT22;18821;44.800;10.326;2022-09-09T15:19:01;28.20;99.90
32348;DHT22;18821;44.800;10.326;2022-09-09T15:21:31;28.10;99.90
32348;DHT22;18821;44.800;10.326;2022-09-09T15:23:57;28.00;99.90
32348;DHT22;18821;44.800;10.326;2022-09-09T15:26:24;28.20;99.90
32348;DHT22;18821;44.800;10.326;2022-09-09T15:28:51;28.40;99.90
32348;DHT22;18821;44.800;10.326;2022-09-09T15:31:20;28.50;99.90
32348;DHT22;18821;44.800;10.326;2022-09-09T15:33:48;28.50;99.90
32348;DHT22;18821;44.800;10.326;2022-09-09T15:36:24;28.40;99.90
32348;DHT22;18821;44.800;10.326;2022-09-09T15:38:51;28.40;99.90
32348;DHT22;18821;44.800;10.326;2022-09-09T15:41:18;28.60;99.90
32348;DHT22;18821;44.800;10.326;2022-09-09T15:43:50;28.70;99.90
32348;DHT22;18821;44.800;10.326;2022-09-09T15:48:43;28.80;99.90
32348;DHT22;18821;44.800;10.326;2022-09-09T15:51:10;28.70;99.90
32348;DHT22;18821;44.800;10.326;2022-09-09T15:53:40;28.60;99.90
32348;DHT22;18821;44.800;10.326;2022-09-09T15:56:06;28.50;99.90
32348;DHT22;18821;44.800;10.326;2022-09-09T15:58:34;28.50;99.90
32348;DHT22;18821;44.800;10.326;2022-09-09T16:01:08;28.40;99.90
32348;DHT22;18821;44.800;10.326;2022-09-09T16:03:39;28.40;99.90
32348;DHT22;18821;44.800;10.326;2022-09-09T16:06:07;28.40;99.90
32348;DHT22;18821;44.800;10.326;2022-09-09T16:08:40;28.40;99.90
32348;DHT22;18821;44.800;10.326;2022-09-09T16:11:13;28.30;99.90
32348;DHT22;18821;44.800;10.326;2022-09-09T16:13:42;28.40;99.90
32348;DHT22;18821;44.800;10.326;2022-09-09T16:16:11;28.40;99.90
32348;DHT22;18821;44.800;10.326;2022-09-09T16:18:45;28.30;99.90
32348;DHT22;18821;44.800;10.326;2022-09-09T16:21:18;28.30;99.90
32348;DHT22;18821;44.800;10.326;2022-09-09T16:23:44;28.20;99.90
32348;DHT22;18821;44.800;10.326;2022-09-09T16:26:12;28.10;99.90
32348;DHT22;18821;44.800;10.326;2022-09-09T16:28:39;28.00;99.90
32348;DHT22;18821;44.800;10.326;2022-09-09T16:31:07;28.00;99.90
32348;DHT22;18821;44.800;10.326;2022-09-09T16:33:34;27.80;99.90
32348;DHT22;18821;44.800;10.326;2022-09-09T16:36:06;27.80;99.90
32348;DHT22;18821;44.800;10.326;2022-09-09T16:38:32;27.70;99.90
32348;DHT22;18821;44.800;10.326;2022-09-09T16:41:03;27.60;99.90
32348;DHT22;18821;44.800;10.326;2022-09-09T16:43:33;27.50;99.90
32348;DHT22;18821;44.800;10.326;2022-09-09T16:46:00;27.50;99.90
32348;DHT22;18821;44.800;10.326;2022-09-09T16:48:30;27.30;99.90
32348;DHT22;18821;44.800;10.326;2022-09-09T16:51:09;27.20;99.90
32348;DHT22;18821;44.800;10.326;2022-09-09T16:53:38;27.10;99.90
32348;DHT22;18821;44.800;10.326;2022-09-09T16:56:07;27.00;99.90
32348;DHT22;18821;44.800;10.326;2022-09-09T16:58:34;26.90;99.90
32348;DHT22;18821;44.800;10.326;2022-09-09T17:01:03;26.80;99.90
32348;DHT22;18821;44.800;10.326;2022-09-09T17:03:29;26.70;99.90
32348;DHT22;18821;44.800;10.326;2022-09-09T17:05:58;26.70;99.90
32348;DHT22;18821;44.800;10.326;2022-09-09T17:08:29;26.60;99.90
32348;DHT22;18821;44.800;10.326;2022-09-09T17:10:56;26.50;99.90
32348;DHT22;18821;44.800;10.326;2022-09-09T17:13:23;26.40;99.90
32348;DHT22;18821;44.800;10.326;2022-09-09T17:15:50;26.30;99.90
32348;DHT22;18821;44.800;10.326;2022-09-09T17:18:16;26.30;99.90
32348;DHT22;18821;44.800;10.326;2022-09-09T17:20:43;26.20;99.90
32348;DHT22;18821;44.800;10.326;2022-09-09T17:23:11;26.10;99.90
32348;DHT22;18821;44.800;10.326;2022-09-09T17:25:41;26.00;99.90
32348;DHT22;18821;44.800;10.326;2022-09-09T17:28:07;26.00;99.90
32348;DHT22;18821;44.800;10.326;2022-09-09T17:30:34;25.90;99.90
32348;DHT22;18821;44.800;10.326;2022-09-09T17:33:03;25.80;99.90
32348;DHT22;18821;44.800;10.326;2022-09-09T17:35:30;25.70;99.90
32348;DHT22;18821;44.800;10.326;2022-09-09T17:37:56;25.60;99.90
32348;DHT22;18821;44.800;10.326;2022-09-09T17:40:23;25.60;99.90
32348;DHT22;18821;44.800;10.326;2022-09-09T17:42:49;25.50;99.90
32348;DHT22;18821;44.800;10.326;2022-09-09T17:45:16;25.40;99.90
32348;DHT22;18821;44.800;10.326;2022-09-09T17:47:42;25.40;99.90
32348;DHT22;18821;44.800;10.326;2022-09-09T17:50:10;25.30;99.90
32348;DHT22;18821;44.800;10.326;2022-09-09T17:52:39;25.20;99.90